Time;durP1;ratioP1;P1;durP2;ratioP2;P2;SDS_P1;SDS_P2;PMS_P1;PMS_P2;Temp;Humidity;BMP_temperature;BMP_pressure;BME280_temperature;BME280_humidity;BME280_pressure;Samples;Min_cycle;Max_cycle;Signal;HPM_P1;HPM_P2
2021/01/14 00:00:34;;;;;;;31.65;17.83;;;1.20;67.40;;;;;;5096134;28;20368;-50
2021/01/14 00:03:01;;;;;;;29.77;16.63;;;1.20;67.50;;;;;;5097027;28;20098;-49
2021/01/14 00:05:27;;;;;;;33.40;17.60;;;1.20;67.60;;;;;;5096012;28;20024;-49
2021/01/14 00:07:53;;;;;;;36.78;20.60;;;1.20;67.60;;;;;;5097315;28;20028;-49
2021/01/14 00:10:19;;;;;;;36.33;18.35;;;1.20;67.50;;;;;;5096246;28;20027;-50
2021/01/14 00:12:45;;;;;;;41.10;23.13;;;1.20;67.50;;;;;;5098105;28;20035;-53
2021/01/14 00:15:14;;;;;;;40.22;21.00;;;1.20;67.40;;;;;;5090444;28;20036;-52
2021/01/14 00:17:40;;;;;;;46.25;23.98;;;1.20;67.40;;;;;;5096190;28;20069;-50
2021/01/14 00:20:09;;;;;;;49.60;26.80;;;1.20;67.30;;;;;;5096828;28;20184;-50
2021/01/14 00:22:35;;;;;;;38.08;21.17;;;1.20;67.30;;;;;;5097018;28;20032;-49
2021/01/14 00:25:01;;;;;;;48.78;26.05;;;1.20;67.40;;;;;;5095960;28;20382;-49
2021/01/14 00:27:26;;;;;;;44.25;22.55;;;1.20;67.50;;;;;;5096620;28;20142;-48
2021/01/14 00:29:52;;;;;;;45.80;24.52;;;1.10;67.60;;;;;;5097027;28;20334;-50
2021/01/14 00:32:18;;;;;;;50.55;27.02;;;1.20;67.80;;;;;;5097324;28;20097;-48
2021/01/14 00:34:43;;;;;;;48.38;25.25;;;1.20;67.70;;;;;;5095714;28;20047;-50
2021/01/14 00:39:55;;;;;;;43.83;25.60;;;1.20;67.60;;;;;;5096636;28;20333;-48
2021/01/14 00:42:20;;;;;;;41.08;22.20;;;1.10;67.50;;;;;;5096969;28;20410;-48
2021/01/14 00:44:46;;;;;;;42.38;21.92;;;1.10;67.60;;;;;;5096680;28;20030;-49
2021/01/14 00:47:12;;;;;;;41.10;22.95;;;1.10;67.60;;;;;;5097013;28;20460;-49
2021/01/14 00:49:38;;;;;;;45.03;24.02;;;1.10;67.60;;;;;;5096455;28;20345;-50
2021/01/14 00:52:03;;;;;;;40.58;22.23;;;1.10;67.60;;;;;;5097283;28;20082;-49
2021/01/14 00:54:29;;;;;;;39.65;21.27;;;1.10;67.70;;;;;;5096508;28;20044;-50
2021/01/14 00:56:55;;;;;;;43.90;23.70;;;1.10;67.70;;;;;;5096670;28;20024;-48
2021/01/14 00:59:20;;;;;;;43.35;23.80;;;1.10;67.70;;;;;;5096384;28;20028;-51
2021/01/14 01:01:46;;;;;;;40.80;21.65;;;1.10;67.80;;;;;;5096911;28;20047;-48
2021/01/14 01:04:12;;;;;;;44.15;23.15;;;1.10;67.60;;;;;;5096481;28;20103;-50
2021/01/14 01:06:40;;;;;;;45.17;23.95;;;1.10;67.50;;;;;;5096801;28;20326;-50
2021/01/14 01:09:08;;;;;;;44.90;22.48;;;1.10;67.40;;;;;;5096631;28;20360;-48
2021/01/14 01:11:34;;;;;;;43.13;23.02;;;1.00;67.40;;;;;;5096317;28;20071;-48
2021/01/14 01:14:00;;;;;;;44.50;21.98;;;1.00;67.40;;;;;;5096444;28;20318;-49
2021/01/14 01:16:26;;;;;;;42.80;22.50;;;1.00;67.40;;;;;;5096834;28;20055;-48
2021/01/14 01:18:52;;;;;;;39.92;21.80;;;1.00;67.60;;;;;;5096101;28;20060;-50
2021/01/14 01:21:18;;;;;;;40.65;21.40;;;1.00;67.60;;;;;;5095899;28;20454;-49
2021/01/14 01:23:43;;;;;;;43.92;23.73;;;1.00;67.60;;;;;;5096683;28;20036;-50
2021/01/14 01:26:18;;;;;;;42.03;24.05;;;1.00;67.80;;;;;;5095458;28;20020;-49
2021/01/14 01:28:46;;;;;;;48.83;23.75;;;0.90;67.80;;;;;;5096583;28;20353;-48
2021/01/14 01:31:12;;;;;;;45.08;24.38;;;0.90;67.90;;;;;;5096225;28;20102;-49
2021/01/14 01:33:38;;;;;;;46.78;23.67;;;0.90;67.80;;;;;;5095614;28;20044;-48
2021/01/14 01:36:05;;;;;;;43.15;23.42;;;1.00;67.80;;;;;;5096332;28;20421;-49
2021/01/14 01:38:31;;;;;;;61.85;28.92;;;0.90;67.70;;;;;;5096708;28;20363;-49
2021/01/14 01:40:59;;;;;;;55.83;28.65;;;0.90;67.80;;;;;;5089009;28;20032;-52
2021/01/14 01:43:25;;;;;;;54.67;27.13;;;0.90;67.90;;;;;;5084033;28;20384;-48
2021/01/14 01:45:51;;;;;;;57.03;28.60;;;0.90;68.00;;;;;;5078737;28;20098;-49
2021/01/14 01:48:19;;;;;;;44.55;23.63;;;0.80;68.10;;;;;;5083437;28;20029;-51
2021/01/14 01:50:45;;;;;;;41.15;21.63;;;0.80;68.40;;;;;;5075462;28;20127;-50
2021/01/14 01:53:12;;;;;;;52.55;25.40;;;0.90;68.50;;;;;;5088600;28;20427;-49
2021/01/14 01:55:39;;;;;;;59.75;26.75;;;0.90;68.60;;;;;;5093295;28;20032;-49
2021/01/14 01:58:05;;;;;;;46.22;23.27;;;0.90;68.60;;;;;;5094775;28;20030;-48
2021/01/14 02:00:32;;;;;;;53.25;26.33;;;0.90;68.70;;;;;;5095066;28;20559;-49
2021/01/14 02:02:58;;;;;;;58.13;28.95;;;0.90;68.60;;;;;;5095793;28;20024;-48
2021/01/14 02:05:23;;;;;;;56.35;29.48;;;0.90;68.60;;;;;;5095081;28;20392;-52
2021/01/14 02:07:49;;;;;;;48.03;24.27;;;0.90;68.70;;;;;;5095362;28;20031;-49
2021/01/14 02:10:21;;;;;;;48.03;25.15;;;0.90;68.70;;;;;;5094129;28;20122;-52
2021/01/14 02:13:04;;;;;;;55.20;25.02;;;0.90;68.70;;;;;;5094764;28;20023;-48
2021/01/14 02:15:32;;;;;;;58.85;30.35;;;0.90;68.70;;;;;;5093534;28;20073;-48
2021/01/14 02:17:58;;;;;;;43.85;23.75;;;0.90;68.80;;;;;;5094112;28;20333;-49
2021/01/14 02:20:25;;;;;;;48.22;25.27;;;0.90;68.80;;;;;;5093477;28;20081;-49
2021/01/14 02:23:00;;;;;;;48.78;25.40;;;0.90;69.00;;;;;;5094378;28;20044;-48
2021/01/14 02:25:31;;;;;;;52.75;25.65;;;1.00;68.90;;;;;;5094157;28;20036;-48
2021/01/14 02:27:59;;;;;;;54.45;26.48;;;1.00;68.80;;;;;;5096349;28;20037;-49
2021/01/14 02:30:25;;;;;;;51.13;27.27;;;0.90;68.70;;;;;;5094963;28;20442;-48
2021/01/14 02:32:51;;;;;;;47.97;23.58;;;0.90;68.80;;;;;;5095343;28;20350;-50
2021/01/14 02:35:16;;;;;;;51.38;25.15;;;0.90;68.90;;;;;;5094960;28;20041;-51
2021/01/14 02:37:42;;;;;;;53.53;26.70;;;0.90;68.90;;;;;;5095813;28;20416;-49
2021/01/14 02:40:08;;;;;;;43.25;23.65;;;0.90;68.90;;;;;;5094798;28;20426;-49
2021/01/14 02:42:34;;;;;;;48.25;25.85;;;0.90;68.90;;;;;;5095843;28;20465;-50
2021/01/14 02:45:00;;;;;;;46.05;23.75;;;0.90;69.00;;;;;;5094890;28;20028;-50
2021/01/14 02:47:27;;;;;;;56.38;28.20;;;0.90;69.20;;;;;;5095514;28;20020;-48
2021/01/14 02:50:03;;;;;;;51.47;26.98;;;0.90;69.40;;;;;;5095445;28;20074;-48
2021/01/14 02:52:30;;;;;;;47.45;25.38;;;0.90;69.90;;;;;;5095894;28;20020;-48
2021/01/14 02:54:59;;;;;;;51.88;27.95;;;0.90;69.20;;;;;;5094016;28;20036;-49
2021/01/14 02:57:28;;;;;;;52.85;28.13;;;0.90;69.20;;;;;;5095227;28;20074;-49
2021/01/14 02:59:54;;;;;;;54.13;27.00;;;0.80;69.10;;;;;;5097775;28;20058;-49
2021/01/14 03:02:20;;;;;;;45.75;24.27;;;0.80;69.20;;;;;;5098930;28;20035;-49
2021/01/14 03:04:46;;;;;;;46.75;24.73;;;0.80;69.40;;;;;;5099176;28;20383;-50
2021/01/14 03:07:12;;;;;;;53.13;25.52;;;0.80;69.60;;;;;;5099475;28;20024;-49
2021/01/14 03:09:37;;;;;;;50.35;27.50;;;0.90;69.70;;;;;;5096320;28;20066;-50
2021/01/14 03:12:03;;;;;;;52.35;27.60;;;0.80;69.50;;;;;;5089472;28;20028;-49
2021/01/14 03:14:29;;;;;;;53.30;26.55;;;0.90;69.60;;;;;;5078107;28;20438;-52
2021/01/14 03:16:54;;;;;;;51.38;27.92;;;0.90;69.70;;;;;;5079032;28;20031;-48
2021/01/14 03:19:20;;;;;;;49.47;26.35;;;0.90;69.70;;;;;;5077916;28;20051;-50
2021/01/14 03:21:46;;;;;;;58.53;29.27;;;0.90;69.70;;;;;;5078522;28;20333;-48
2021/01/14 03:24:11;;;;;;;47.03;26.33;;;0.90;69.70;;;;;;5078352;28;20448;-51
2021/01/14 03:26:38;;;;;;;58.83;30.00;;;0.90;69.70;;;;;;5078460;28;20037;-49
2021/01/14 03:29:04;;;;;;;54.85;27.67;;;0.90;69.70;;;;;;5078451;28;20032;-56
2021/01/14 03:31:30;;;;;;;52.85;27.08;;;0.90;69.70;;;;;;5076962;28;20127;-54
2021/01/14 03:33:56;;;;;;;48.55;25.20;;;0.90;69.60;;;;;;5078357;28;20143;-57
2021/01/14 03:36:22;;;;;;;53.47;28.35;;;0.90;69.60;;;;;;5077946;28;20029;-55
2021/01/14 03:38:48;;;;;;;57.58;27.25;;;0.90;69.50;;;;;;5077763;28;20031;-57
2021/01/14 03:41:16;;;;;;;47.47;25.52;;;0.90;69.70;;;;;;5077614;28;20051;-54
2021/01/14 03:43:42;;;;;;;53.17;26.88;;;0.90;69.50;;;;;;5078004;28;20028;-52
2021/01/14 03:46:20;;;;;;;53.15;27.15;;;0.90;69.70;;;;;;5077594;28;20115;-55
2021/01/14 03:48:47;;;;;;;55.10;26.77;;;0.90;69.80;;;;;;5078106;28;20037;-54
2021/01/14 03:51:22;;;;;;;45.72;24.67;;;0.90;70.10;;;;;;5077828;28;20090;-54
2021/01/14 03:53:51;;;;;;;56.88;28.25;;;0.90;70.10;;;;;;5078009;28;20040;-54
2021/01/14 03:56:17;;;;;;;54.47;28.02;;;0.90;70.10;;;;;;5077532;28;20016;-53
2021/01/14 03:58:43;;;;;;;55.33;27.90;;;0.90;70.00;;;;;;5077821;28;20044;-53
2021/01/14 04:01:09;;;;;;;58.60;29.67;;;1.00;70.10;;;;;;5077373;28;20032;-54
2021/01/14 04:03:42;;;;;;;57.22;27.92;;;1.00;70.20;;;;;;5077344;28;20380;-54
2021/01/14 04:06:11;;;;;;;48.67;26.20;;;1.00;70.40;;;;;;5077746;28;20055;-55
2021/01/14 04:08:38;;;;;;;59.97;30.60;;;1.00;70.20;;;;;;5077467;28;20339;-54
2021/01/14 04:11:04;;;;;;;59.55;29.25;;;1.00;70.30;;;;;;5077970;28;20578;-54
2021/01/14 04:13:31;;;;;;;61.22;30.48;;;1.00;70.20;;;;;;5086319;28;20115;-50
2021/01/14 04:15:57;;;;;;;66.07;32.20;;;1.00;70.20;;;;;;5080683;28;20036;-49
2021/01/14 04:18:22;;;;;;;62.13;30.63;;;1.00;70.30;;;;;;5076237;28;20035;-48
2021/01/14 04:20:48;;;;;;;67.25;32.92;;;1.00;70.20;;;;;;5084197;28;20048;-49
2021/01/14 04:23:14;;;;;;;70.10;34.80;;;1.00;70.30;;;;;;5079781;28;20029;-54
2021/01/14 04:25:40;;;;;;;66.68;33.80;;;1.00;70.20;;;;;;5075562;28;20426;-56
2021/01/14 04:28:05;;;;;;;61.60;32.15;;;0.90;70.20;;;;;;5085955;28;20115;-53
2021/01/14 04:30:33;;;;;;;73.13;34.97;;;0.90;70.30;;;;;;5086353;28;20119;-54
2021/01/14 04:33:10;;;;;;;58.50;29.90;;;0.90;70.50;;;;;;5085115;28;20028;-54
2021/01/14 04:36:00;;;;;;;68.60;33.03;;;0.80;70.50;;;;;;5076208;28;20040;-54
2021/01/14 04:38:28;;;;;;;73.22;33.38;;;0.80;70.80;;;;;;5076971;28;20029;-54
2021/01/14 04:40:54;;;;;;;65.05;31.95;;;0.80;70.80;;;;;;5077200;28;20123;-51
2021/01/14 04:43:23;;;;;;;73.32;34.90;;;0.80;71.00;;;;;;5077330;28;20143;-54
2021/01/14 04:45:51;;;;;;;72.78;33.85;;;0.80;71.20;;;;;;5076129;28;20187;-52
2021/01/14 04:48:19;;;;;;;85.25;39.58;;;0.80;71.20;;;;;;5077499;28;20077;-55
2021/01/14 04:50:47;;;;;;;72.00;33.25;;;0.90;71.40;;;;;;5077103;28;20044;-55
2021/01/14 04:53:18;;;;;;;63.45;32.97;;;0.90;71.50;;;;;;5076576;28;20024;-55
2021/01/14 04:55:48;;;;;;;61.50;32.15;;;0.90;71.50;;;;;;5075459;28;20109;-55
2021/01/14 04:58:19;;;;;;;68.80;33.08;;;0.90;71.30;;;;;;5076823;28;20083;-53
2021/01/14 05:00:49;;;;;;;72.97;34.22;;;0.90;71.30;;;;;;5076336;28;20327;-55
2021/01/14 05:03:27;;;;;;;64.18;32.33;;;0.90;71.30;;;;;;5077069;28;20033;-54
2021/01/14 05:05:55;;;;;;;75.70;35.13;;;0.90;71.30;;;;;;5076774;28;20024;-55
2021/01/14 05:08:27;;;;;;;71.15;33.78;;;0.90;71.40;;;;;;5076766;28;20055;-51
2021/01/14 05:10:53;;;;;;;72.03;35.47;;;0.90;71.50;;;;;;5076351;28;20032;-51
2021/01/14 05:13:19;;;;;;;71.25;35.28;;;0.90;71.70;;;;;;5075727;28;20035;-53
2021/01/14 05:15:45;;;;;;;88.15;41.05;;;0.90;71.80;;;;;;5074810;28;20025;-55
2021/01/14 05:18:11;;;;;;;80.30;38.60;;;0.90;71.70;;;;;;5075753;28;20039;-52
2021/01/14 05:20:36;;;;;;;69.75;32.35;;;0.90;71.80;;;;;;5075386;28;20450;-54
2021/01/14 05:23:04;;;;;;;85.15;37.70;;;0.90;71.80;;;;;;5074605;28;20098;-52
2021/01/14 05:25:31;;;;;;;72.47;33.85;;;0.90;71.90;;;;;;5074679;28;20017;-54
2021/01/14 05:28:11;;;;;;;75.22;36.13;;;1.00;72.00;;;;;;5074372;28;20038;-54
2021/01/14 05:30:38;;;;;;;81.60;38.25;;;1.00;72.00;;;;;;5073907;28;20119;-54
2021/01/14 05:33:10;;;;;;;75.30;34.25;;;1.00;71.80;;;;;;5074914;28;20434;-53
2021/01/14 05:35:36;;;;;;;73.80;35.92;;;1.00;71.90;;;;;;5073560;28;20035;-55
2021/01/14 05:38:03;;;;;;;73.47;35.13;;;1.00;72.00;;;;;;5074276;28;20024;-53
2021/01/14 05:40:30;;;;;;;69.78;33.03;;;1.00;72.00;;;;;;5075893;28;20024;-54
2021/01/14 05:43:01;;;;;;;60.85;30.33;;;1.10;72.00;;;;;;5076117;28;20028;-54
2021/01/14 05:45:27;;;;;;;65.97;33.00;;;1.10;72.10;;;;;;5074837;28;20068;-53
2021/01/14 05:48:11;;;;;;;58.40;29.55;;;1.10;72.10;;;;;;5076320;28;20097;-51
2021/01/14 05:50:44;;;;;;;63.80;30.02;;;1.10;72.10;;;;;;5075510;28;20280;-55
2021/01/14 05:53:17;;;;;;;84.25;35.25;;;1.10;72.10;;;;;;5075948;28;20024;-54
2021/01/14 05:55:51;;;;;;;68.07;32.88;;;1.10;72.20;;;;;;5075305;28;20123;-55
2021/01/14 05:58:19;;;;;;;66.45;31.98;;;1.10;72.20;;;;;;5076006;28;20470;-52
2021/01/14 06:00:46;;;;;;;65.70;29.33;;;1.10;72.40;;;;;;5074685;28;20090;-55
2021/01/14 06:03:29;;;;;;;70.57;31.90;;;1.10;72.30;;;;;;5076044;28;20021;-54
2021/01/14 06:05:57;;;;;;;72.45;33.15;;;1.20;72.50;;;;;;5077787;28;20342;-55
2021/01/14 06:08:27;;;;;;;63.42;30.15;;;1.20;72.50;;;;;;5095891;28;20368;-54
2021/01/14 06:10:54;;;;;;;73.03;32.65;;;1.10;72.70;;;;;;5095911;28;20329;-55
2021/01/14 06:13:38;;;;;;;76.05;34.20;;;1.20;72.80;;;;;;5095037;28;20032;-54
2021/01/14 06:16:05;;;;;;;68.82;32.55;;;1.20;72.90;;;;;;5093678;28;20028;-55
2021/01/14 06:18:30;;;;;;;70.53;31.33;;;1.20;72.90;;;;;;5095068;28;20035;-53
2021/01/14 06:20:56;;;;;;;76.85;33.67;;;1.20;72.90;;;;;;5093896;28;20052;-50
2021/01/14 06:23:23;;;;;;;86.82;37.50;;;1.20;73.10;;;;;;5094141;28;20070;-49
2021/01/14 06:25:53;;;;;;;72.15;33.45;;;1.20;73.20;;;;;;5095302;28;20392;-52
2021/01/14 06:28:31;;;;;;;69.25;30.00;;;1.20;73.30;;;;;;5094608;28;20476;-53
2021/01/14 06:31:01;;;;;;;80.82;34.95;;;1.20;73.10;;;;;;5094506;28;20047;-51
2021/01/14 06:33:28;;;;;;;66.13;32.40;;;1.20;73.40;;;;;;5097327;28;20031;-49
2021/01/14 06:36:10;;;;;;;76.55;32.70;;;1.20;73.40;;;;;;5099077;28;20036;-49
2021/01/14 06:38:47;;;;;;;72.88;32.47;;;1.20;73.50;;;;;;5099139;28;20807;-50
2021/01/14 06:41:20;;;;;;;80.50;34.33;;;1.30;73.60;;;;;;5098207;28;20020;-49
2021/01/14 06:43:48;;;;;;;76.20;34.45;;;1.30;73.80;;;;;;5098820;28;20353;-49
2021/01/14 06:46:22;;;;;;;72.25;34.10;;;1.30;74.00;;;;;;5097955;28;20118;-50
2021/01/14 06:49:02;;;;;;;82.88;33.83;;;1.30;74.00;;;;;;5098914;28;20066;-48
2021/01/14 06:51:50;;;;;;;78.05;33.20;;;1.30;74.00;;;;;;5098153;28;20024;-50
2021/01/14 06:54:18;;;;;;;81.07;35.30;;;1.30;73.90;;;;;;5096241;28;20044;-50
2021/01/14 06:57:13;;;;;;;85.65;34.42;;;1.30;74.60;;;;;;5098537;28;20028;-53
2021/01/14 06:59:39;;;;;;;77.00;34.28;;;1.30;74.10;;;;;;5094438;28;20027;-49
2021/01/14 07:02:10;;;;;;;70.90;30.52;;;1.30;74.10;;;;;;5090615;28;20059;-51
2021/01/14 07:04:45;;;;;;;72.30;33.47;;;1.30;74.30;;;;;;5094824;28;20020;-52
2021/01/14 07:07:26;;;;;;;79.57;33.92;;;1.30;74.60;;;;;;5096826;28;20028;-49
2021/01/14 07:10:09;;;;;;;78.10;34.42;;;1.40;74.70;;;;;;5097687;28;20056;-50
2021/01/14 07:12:39;;;;;;;78.55;37.90;;;1.40;74.70;;;;;;5098092;28;20036;-49
2021/01/14 07:15:08;;;;;;;72.80;31.50;;;1.40;74.70;;;;;;5095757;28;20090;-49
2021/01/14 07:17:39;;;;;;;68.78;31.08;;;1.40;74.90;;;;;;5096152;28;20046;-49
2021/01/14 07:20:16;;;;;;;74.85;32.22;;;1.40;75.00;;;;;;5096345;28;20109;-52
2021/01/14 07:22:57;;;;;;;76.60;34.85;;;1.40;75.20;;;;;;5098863;28;20020;-49
2021/01/14 07:25:25;;;;;;;77.75;36.25;;;1.40;75.10;;;;;;5096379;28;20024;-53
2021/01/14 07:27:51;;;;;;;79.43;34.70;;;1.50;75.10;;;;;;5098499;28;20043;-53
2021/01/14 07:30:18;;;;;;;80.85;36.15;;;1.50;75.10;;;;;;5097570;28;20060;-49
2021/01/14 07:33:05;;;;;;;73.65;34.75;;;1.50;75.20;;;;;;5098821;28;20059;-49
2021/01/14 07:35:45;;;;;;;83.20;35.55;;;1.60;75.30;;;;;;5077208;28;20488;-49
2021/01/14 07:38:16;;;;;;;75.93;33.50;;;1.60;75.60;;;;;;5078766;28;20028;-51
2021/01/14 07:40:43;;;;;;;71.10;33.03;;;1.70;75.40;;;;;;5096536;28;20089;-49
2021/01/14 07:43:14;;;;;;;73.13;31.15;;;1.70;75.30;;;;;;5096662;28;20027;-48
2021/01/14 07:45:41;;;;;;;71.22;32.63;;;1.80;75.20;;;;;;5096695;28;20039;-49
2021/01/14 07:48:18;;;;;;;65.57;30.45;;;1.80;75.20;;;;;;5098448;28;20074;-49
2021/01/14 07:50:52;;;;;;;64.53;29.00;;;1.80;75.10;;;;;;5096785;28;20039;-49
2021/01/14 07:53:19;;;;;;;78.65;37.22;;;1.90;75.00;;;;;;5098199;28;20024;-49
2021/01/14 07:55:46;;;;;;;63.95;32.63;;;1.90;75.10;;;;;;5089358;28;20036;-49
2021/01/14 07:58:22;;;;;;;73.28;33.08;;;1.90;75.00;;;;;;5093540;28;20020;-49
2021/01/14 08:01:17;;;;;;;62.65;31.98;;;2.00;75.20;;;;;;5092861;28;20031;-50
2021/01/14 08:03:44;;;;;;;64.18;30.55;;;2.10;75.10;;;;;;5085176;28;20721;-49
2021/01/14 08:06:22;;;;;;;68.80;29.67;;;2.10;75.00;;;;;;5096287;28;20042;-49
2021/01/14 08:08:58;;;;;;;60.40;30.27;;;2.10;74.90;;;;;;5095934;28;20036;-48
2021/01/14 08:11:24;;;;;;;65.63;32.70;;;2.20;74.90;;;;;;5089452;28;20026;-50
2021/01/14 08:14:09;;;;;;;61.35;29.83;;;2.20;74.70;;;;;;5096439;28;20047;-49
2021/01/14 08:16:39;;;;;;;64.95;31.17;;;2.20;74.70;;;;;;5093130;28;20024;-49
2021/01/14 08:19:28;;;;;;;68.07;32.63;;;2.20;74.50;;;;;;5096080;28;20040;-52
2021/01/14 08:22:03;;;;;;;59.05;29.52;;;2.30;74.60;;;;;;5083658;28;20425;-48
2021/01/14 08:24:33;;;;;;;62.47;29.65;;;2.30;74.70;;;;;;5096331;28;20029;-49
2021/01/14 08:27:12;;;;;;;66.45;32.20;;;2.40;74.70;;;;;;5097354;28;20067;-48
2021/01/14 08:29:41;;;;;;;59.60;31.27;;;2.40;74.50;;;;;;5094885;28;20032;-49
2021/01/14 08:32:34;;;;;;;65.97;33.20;;;2.40;74.30;;;;;;5097347;28;20352;-53
2021/01/14 08:35:04;;;;;;;63.88;33.10;;;2.50;74.30;;;;;;5095093;28;20126;-54
2021/01/14 08:38:11;;;;;;;60.25;29.35;;;2.50;74.30;;;;;;5097294;28;20019;-51
2021/01/14 08:40:39;;;;;;;64.53;32.20;;;2.50;74.20;;;;;;5078096;28;20043;-53
2021/01/14 08:43:13;;;;;;;59.00;30.95;;;2.50;74.20;;;;;;5097352;28;20413;-53
2021/01/14 08:45:47;;;;;;;66.63;32.22;;;2.60;74.40;;;;;;5096254;28;20043;-51
2021/01/14 08:48:19;;;;;;;62.13;30.27;;;2.60;74.20;;;;;;5097048;28;20107;-51
2021/01/14 08:50:49;;;;;;;63.38;32.15;;;2.60;73.90;;;;;;5095815;28;20409;-52
2021/01/14 08:53:36;;;;;;;64.85;31.13;;;2.60;73.80;;;;;;5096404;28;20043;-51
2021/01/14 08:56:05;;;;;;;67.30;32.78;;;2.60;73.80;;;;;;5094090;28;20032;-50
2021/01/14 08:58:39;;;;;;;62.17;30.73;;;2.60;73.80;;;;;;5096572;28;20357;-51
2021/01/14 09:01:15;;;;;;;57.97;29.50;;;2.60;73.90;;;;;;5095551;28;20039;-51
2021/01/14 09:03:41;;;;;;;65.78;36.00;;;2.60;74.00;;;;;;5095262;28;20036;-50
2021/01/14 09:06:07;;;;;;;58.13;30.30;;;2.60;74.10;;;;;;5096055;28;20077;-51
2021/01/14 09:08:33;;;;;;;61.20;30.77;;;2.70;74.10;;;;;;5095571;28;20463;-52
2021/01/14 09:11:01;;;;;;;60.78;30.77;;;2.70;73.90;;;;;;5104710;28;20061;-52
2021/01/14 09:13:29;;;;;;;64.53;31.10;;;2.70;73.80;;;;;;5099321;28;20019;-51
2021/01/14 09:15:57;;;;;;;51.65;27.23;;;2.70;73.90;;;;;;5095956;28;20126;-53
2021/01/14 09:18:37;;;;;;;57.38;29.58;;;2.70;73.80;;;;;;5094075;28;20032;-53
2021/01/14 09:21:04;;;;;;;57.97;29.40;;;2.70;73.80;;;;;;5086799;28;20060;-51
2021/01/14 09:23:35;;;;;;;58.30;29.10;;;2.70;73.70;;;;;;5095689;28;20020;-51
2021/01/14 09:26:04;;;;;;;54.80;29.33;;;2.80;73.70;;;;;;5096228;28;20089;-53
2021/01/14 09:28:32;;;;;;;55.50;28.30;;;2.80;73.60;;;;;;5095952;28;20122;-51
2021/01/14 09:31:07;;;;;;;52.55;28.23;;;2.80;73.60;;;;;;5096074;28;20080;-52
2021/01/14 09:33:35;;;;;;;59.67;29.73;;;2.80;73.60;;;;;;5095196;28;20035;-52
2021/01/14 09:36:09;;;;;;;55.47;28.55;;;2.80;73.70;;;;;;5095629;28;20092;-56
2021/01/14 09:38:55;;;;;;;56.47;29.60;;;2.80;73.80;;;;;;5096693;28;20074;-56
2021/01/14 09:41:31;;;;;;;56.22;30.02;;;2.80;73.70;;;;;;5088050;28;20422;-56
2021/01/14 09:43:59;;;;;;;51.80;27.90;;;2.90;74.00;;;;;;5092795;28;20029;-56
2021/01/14 09:46:35;;;;;;;47.17;26.85;;;2.90;73.80;;;;;;5091939;28;20028;-57
2021/01/14 09:49:05;;;;;;;49.08;25.65;;;2.90;73.40;;;;;;5087793;28;20024;-57
2021/01/14 09:51:35;;;;;;;50.78;26.13;;;2.90;73.20;;;;;;5092127;28;20035;-57
2021/01/14 09:54:03;;;;;;;49.20;27.33;;;2.90;73.20;;;;;;5095380;28;20028;-57
2021/01/14 09:56:36;;;;;;;49.03;28.33;;;2.90;73.40;;;;;;5094158;28;20144;-56
2021/01/14 09:59:17;;;;;;;47.55;25.50;;;2.90;73.40;;;;;;5090334;28;20058;-57
2021/01/14 10:01:53;;;;;;;51.38;25.88;;;2.90;73.20;;;;;;5095806;28;20020;-56
2021/01/14 10:04:22;;;;;;;52.70;26.80;;;3.00;73.20;;;;;;5094577;28;20031;-56
2021/01/14 10:07:01;;;;;;;45.92;24.90;;;3.00;72.90;;;;;;5094870;28;20103;-56
2021/01/14 10:09:27;;;;;;;42.42;24.23;;;3.00;72.80;;;;;;5094785;28;20027;-55
2021/01/14 10:11:53;;;;;;;41.50;22.83;;;3.00;72.90;;;;;;5091597;28;20092;-56
2021/01/14 10:14:22;;;;;;;36.83;20.63;;;3.00;72.70;;;;;;5094554;28;20397;-55
2021/01/14 10:16:49;;;;;;;37.80;20.80;;;2.90;72.60;;;;;;5091391;28;20020;-56
2021/01/14 10:19:20;;;;;;;45.85;26.13;;;2.90;72.60;;;;;;5089976;28;20024;-56
2021/01/14 10:21:48;;;;;;;45.75;24.58;;;2.90;72.70;;;;;;5098002;28;20071;-56
2021/01/14 10:24:29;;;;;;;36.92;20.52;;;2.90;72.70;;;;;;5091393;28;20028;-57
2021/01/14 10:27:09;;;;;;;41.38;21.95;;;2.90;72.70;;;;;;5095368;28;20032;-56
2021/01/14 10:29:41;;;;;;;43.38;22.70;;;3.00;73.30;;;;;;5095065;28;20036;-56
2021/01/14 10:32:08;;;;;;;34.50;19.67;;;3.00;72.70;;;;;;5094957;28;20028;-56
2021/01/14 10:34:47;;;;;;;41.92;22.42;;;3.00;72.60;;;;;;5094796;28;20580;-56
2021/01/14 10:37:26;;;;;;;39.08;21.23;;;3.00;72.60;;;;;;5095128;28;20031;-56
2021/01/14 10:40:00;;;;;;;40.35;21.33;;;3.00;72.20;;;;;;5092874;28;20027;-57
2021/01/14 10:42:38;;;;;;;38.08;20.88;;;3.00;72.10;;;;;;5094708;28;20020;-55
2021/01/14 10:45:12;;;;;;;33.92;18.45;;;3.00;72.10;;;;;;5078920;28;20036;-56
2021/01/14 10:47:40;;;;;;;37.40;20.52;;;3.00;72.10;;;;;;5090119;28;20450;-56
2021/01/14 10:50:22;;;;;;;36.65;21.13;;;3.00;72.20;;;;;;5074805;28;20033;-56
2021/01/14 10:53:03;;;;;;;42.40;21.92;;;3.00;72.20;;;;;;5075776;28;20024;-56
2021/01/14 10:55:30;;;;;;;33.47;18.70;;;3.10;72.10;;;;;;5073747;28;20354;-56
2021/01/14 10:57:58;;;;;;;32.78;19.02;;;3.00;72.00;;;;;;5075558;28;20028;-56
2021/01/14 11:00:32;;;;;;;31.40;18.13;;;3.10;72.00;;;;;;5077935;28;20032;-56
2021/01/14 11:03:05;;;;;;;28.75;17.60;;;3.10;72.10;;;;;;5094623;28;20027;-56
2021/01/14 11:05:45;;;;;;;29.35;16.55;;;3.20;72.10;;;;;;5094808;28;20066;-56
2021/01/14 11:08:15;;;;;;;29.88;18.25;;;3.20;71.70;;;;;;5095994;28;20381;-56
2021/01/14 11:10:42;;;;;;;31.45;18.00;;;3.20;71.60;;;;;;5094214;28;20074;-56
2021/01/14 11:13:37;;;;;;;35.33;19.40;;;3.20;71.40;;;;;;5095303;28;20515;-56
2021/01/14 11:16:04;;;;;;;30.27;19.27;;;3.20;71.10;;;;;;5095011;28;20049;-56
2021/01/14 11:18:34;;;;;;;31.27;19.17;;;3.20;71.30;;;;;;5094908;28;20028;-55
2021/01/14 11:20:59;;;;;;;31.00;18.38;;;3.20;71.30;;;;;;5097581;28;20044;-57
2021/01/14 11:23:25;;;;;;;31.80;17.75;;;3.20;71.90;;;;;;5098735;28;20410;-56
2021/01/14 11:25:50;;;;;;;29.20;17.20;;;3.20;71.20;;;;;;5098036;28;20056;-57
2021/01/14 11:28:16;;;;;;;31.92;18.08;;;3.30;71.40;;;;;;5099344;28;20028;-56
2021/01/14 11:30:42;;;;;;;35.70;20.67;;;3.30;71.20;;;;;;5098143;28;20032;-57
2021/01/14 11:33:07;;;;;;;34.30;19.83;;;3.30;71.00;;;;;;5098846;28;20441;-56
2021/01/14 11:35:33;;;;;;;35.10;18.90;;;3.30;70.80;;;;;;5097695;28;20044;-57
2021/01/14 11:37:59;;;;;;;31.40;18.63;;;3.40;70.70;;;;;;5098079;28;20020;-56
2021/01/14 11:40:24;;;;;;;32.00;17.98;;;3.40;70.60;;;;;;5095768;28;20036;-53
2021/01/14 11:42:50;;;;;;;34.67;18.73;;;3.40;70.30;;;;;;5089548;28;20038;-52
2021/01/14 11:45:16;;;;;;;30.67;18.25;;;3.40;70.30;;;;;;5083074;28;20031;-53
2021/01/14 11:47:42;;;;;;;34.03;19.70;;;3.40;70.30;;;;;;5078035;28;20059;-54
2021/01/14 11:50:08;;;;;;;32.20;18.52;;;3.40;70.20;;;;;;5097436;28;20089;-53
2021/01/14 11:52:34;;;;;;;32.38;18.83;;;3.40;70.30;;;;;;5098244;28;20128;-54
2021/01/14 11:54:59;;;;;;;30.90;18.42;;;3.40;70.10;;;;;;5097287;28;20139;-55
2021/01/14 11:57:29;;;;;;;30.02;18.55;;;3.50;70.00;;;;;;5098036;28;20408;-51
2021/01/14 11:59:55;;;;;;;31.08;18.42;;;3.50;69.90;;;;;;5097327;28;20038;-53
2021/01/14 12:02:20;;;;;;;29.77;17.63;;;3.50;69.70;;;;;;5097875;28;20031;-52
2021/01/14 12:04:47;;;;;;;29.73;16.52;;;3.50;69.60;;;;;;5097904;28;20081;-54
2021/01/14 12:07:13;;;;;;;29.15;16.08;;;3.50;69.60;;;;;;5098080;28;20028;-49
2021/01/14 12:09:39;;;;;;;27.85;15.48;;;3.60;69.40;;;;;;5096845;28;20035;-53
2021/01/14 12:12:05;;;;;;;24.00;14.40;;;3.60;69.30;;;;;;5096775;28;20024;-53
2021/01/14 12:14:31;;;;;;;26.55;16.30;;;3.60;69.30;;;;;;5096556;28;20550;-52
2021/01/14 12:16:56;;;;;;;31.55;18.42;;;3.60;68.90;;;;;;5096453;28;20118;-53
2021/01/14 12:19:22;;;;;;;27.83;16.98;;;3.60;68.90;;;;;;5095451;28;20103;-51
2021/01/14 12:22:04;;;;;;;29.70;16.58;;;3.60;68.70;;;;;;5096846;28;20085;-50
2021/01/14 12:24:31;;;;;;;28.05;16.67;;;3.60;68.70;;;;;;5095723;28;20036;-53
2021/01/14 12:26:56;;;;;;;32.08;18.42;;;3.60;68.80;;;;;;5097554;28;20035;-51
2021/01/14 12:29:23;;;;;;;29.10;16.90;;;3.60;68.70;;;;;;5096960;28;20339;-52
2021/01/14 12:31:49;;;;;;;33.38;18.80;;;3.60;68.60;;;;;;5096365;28;20027;-51
2021/01/14 12:34:15;;;;;;;33.28;17.65;;;3.60;68.30;;;;;;5096312;28;20044;-53
2021/01/14 12:36:41;;;;;;;30.63;17.73;;;3.50;68.20;;;;;;5097636;28;20043;-50
2021/01/14 12:39:07;;;;;;;29.02;17.52;;;3.50;68.20;;;;;;5095825;28;20046;-53
2021/01/14 12:41:34;;;;;;;34.25;20.50;;;3.50;68.40;;;;;;5097395;28;20073;-51
2021/01/14 12:44:01;;;;;;;31.27;17.15;;;3.50;68.70;;;;;;5097046;28;20298;-52
2021/01/14 12:46:41;;;;;;;28.67;17.33;;;3.50;68.70;;;;;;5096187;28;20426;-49
2021/01/14 12:49:08;;;;;;;27.20;17.20;;;3.50;68.80;;;;;;5096957;28;20028;-49
2021/01/14 12:51:35;;;;;;;31.42;17.40;;;3.40;68.50;;;;;;5096242;28;20031;-53